Fuji Dream E175 at Yamagata on Apr 23rd 2019, runway excursion on takeoff

Last Update: November 18, 2021 / 19:17:13 GMT/Zulu time

Bookmark this article
Incident Facts

Date of incident
Apr 23, 2019

Classification
Incident

Flight number
JH-386

Destination
Nagoya, Japan

Aircraft Registration
JA11FJ

Aircraft Type
Embraer ERJ-175

ICAO Type Designator
E175

Airport ICAO Code
RJSC

A Fuji Dream Airlines Embraer ERJ-175, registration JA11FJ performing flight JH-386 from Yamagata to Nagoya (Japan) with 60 passengers and 4 crew, was about to depart Yamagata's runway 19 at about 16:40L (07:40Z) when the aircraft veered left off the runway and came to a stop on the grass at the eastern side of the runway. There were no injuries, the damage to the aircraft is being assessed.

Japan's TSB rated the occurrence a serious incident and opened an investigation.

The airline confirmed the aircraft departed runway 19 and came to a stop on the green zone at the east side of the runway. All passengers disembarked without injuries. The cause of the occurrence is being investigated.

On Nov 18th 2021 the JTSB released their final report concluding the probable cause of the serious incident was:

The JTSB concludes that the probable cause of this serious incident was that because the Aircraft could not change its direction while trying to control the nosewheel steering with the Pedal mode when it started takeoff roll, the Aircraft was disabled to move on its own when it stopped in the grass field after running off the side of the runway while aborting the takeoff.

Regarding the reason why the Pedal mode could not control the nosewheel steering, it is highly probable that because there was an abnormality in the microswitch inside the Handle, the steering mode stayed in the Handle mode.

The cause of the microswitch failure could not be determined even in the detailed investigation.

The JTSB analysed that nose wheel steering is being achieved by either using the steering wheel (+/- 76 degrees of rotation) or the rudder pedals (+/- 7 degrees of rotation). These modes can not be used simultaneously. If the nose wheel steering handle is held down, a microswitch engages the handle mode, when it is being released the rudder mode engages. The QAR recordings showed however, that the microswitch detecting release of the handle remained engaged even after release of the handle, thus disabling nose wheel steering via the rudder pedals. The switch had still worked while the aircraft was taxiing out. The JTSB wrote in their analysis:

When observing the disassembled microswitch by a digital microscope, a very small amount of the metal fine particles and the fibrous material were observed near the contact points.

It is probable that the metal fine particles result from worn contact points inside the microswitch, however, the amount of metal fine particles was too small to determine the reason why the microswitch was in the Handle mode, in addition, it is highly probable that the fibrous material was low in the conductive property as a result of the investigation by a scanning electron microscope, therefore, neither was able to clarify the relationship to the fact that the microswitch had been in the Handle mode.

Metars:
RJSC 230900Z 04012KT 360V070 CAVOK 18/07 Q1017=
RJSC 230800Z 07013KT CAVOK 20/07 Q1016=
RJSC 230700Z 07013KT CAVOK 21/07 Q1016=
RJSC 230600Z 07013KT CAVOK 22/06 Q1016=
RJSC 230500Z 09011KT 050V130 CAVOK 23/05 Q1017=
RJSC 230400Z 33004KT 280V060 CAVOK 23/02 Q1018=
RJSC 230300Z 32005KT 280V040 CAVOK 21/02 Q1018=
Incident Facts

Date of incident
Apr 23, 2019

Classification
Incident

Flight number
JH-386

Destination
Nagoya, Japan

Aircraft Registration
JA11FJ

Aircraft Type
Embraer ERJ-175

ICAO Type Designator
E175

Airport ICAO Code
RJSC

This article is published under license from Avherald.com. © of text by Avherald.com.
Article source

You can read 2 more free articles without a subscription.

Subscribe now and continue reading without any limits!

Are you a subscriber? Login
Subscribe

Read unlimited articles and receive our daily update briefing. Gain better insights into what is happening in commercial aviation safety.

Free newsletter

Want to know more and stay ahead? Get our free weekly newsletter and join 5471 existing subscribers.

By subscribing, you accept our terms and conditions and confirm that you've read our privacy policy.

Send tip

Support AeroInside by sending a small tip amount.

Related articles

Newest articles

Subscribe today

Are you researching aviation incidents? Get access to AeroInside Insights, unlimited read access and receive the daily newsletter.

Pick your plan and subscribe

Partner

Blockaviation logo

A new way to document and demonstrate airworthiness compliance and aircraft value. Find out more.

Virtual Speech logo

ELITE Simulation Solutions is a leading global provider of Flight Simulation Training Devices, IFR training software as well as flight controls and related services. Find out more.

Get updates

Never miss an article from AeroInside. Subscribe to our free weekly newsletter and join 5471 existing subscribers.

By subscribing, you accept our terms and conditions and that you've read our privacy policy.

AeroInside Blog
Popular aircraft
Airbus A320
Boeing 737-800
Boeing 737-800 MAX
Popular airlines
American Airlines
United
Delta
Air Canada
Lufthansa
British Airways